Date,TemperatureHighF,TemperatureAvgF,TemperatureLowF,DewpointHighF,DewpointAvgF,DewpointLowF,HumidityHigh,HumidityAvg,HumidityLow,PressureMaxIn,PressureMinIn,WindSpeedMaxMPH,WindSpeedAvgMPH,GustSpeedMaxMPH,PrecipitationSumIn
2013-2-1,-4.0,-4.9,-6.0,-13.0,-17.0,-20.0,64,55,48,0.00,40.00,4,1,7,0.00
2013-2-2,8.0,-2.0,-18.0,0.0,-11.6,-22.0,79,64,42,0.00,40.00,9,3,13,0.00
2013-2-3,6.0,0.3,-8.0,0.0,-7.7,-13.0,79,69,50,0.00,40.00,13,6,21,0.00
2013-2-4,7.0,-1.9,-16.0,3.0,-9.5,-20.0,86,71,52,0.00,40.00,7,3,12,0.00
2013-2-5,16.0,9.3,5.0,7.0,1.1,-4.0,90,71,44,0.00,40.00,14,5,20,0.00
2013-2-6,19.0,12.8,5.0,16.0,6.5,-4.0,91,76,60,0.00,40.00,8,3,14,0.00
2013-2-7,25.0,17.6,11.0,14.0,12.6,9.0,93,81,59,0.00,40.00,9,4,13,0.00
2013-2-8,26.0,15.5,8.0,14.0,11.0,7.0,93,83,59,0.00,40.00,11,4,17,0.00
2013-2-9,26.0,21.1,13.0,25.0,19.0,10.0,97,91,80,0.00,40.00,10,6,17,0.00
2013-2-10,26.0,25.2,24.0,25.0,24.4,23.0,97,96,90,0.00,40.00,13,7,25,0.01
2013-2-11,25.0,20.3,15.0,23.0,15.9,12.0,92,83,73,0.00,40.00,16,10,27,0.01
2013-2-12,30.0,19.6,8.0,19.0,14.0,5.0,91,79,58,0.00,40.00,11,6,18,0.00
2013-2-13,30.0,23.6,17.0,23.0,19.8,14.0,95,86,70,0.00,40.00,9,4,14,0.00
2013-2-14,25.0,16.7,9.0,23.0,7.4,-2.0,94,68,37,0.00,40.00,15,8,22,0.00
2013-2-15,10.0,4.7,-4.0,1.0,-1.6,-8.0,88,75,57,0.00,40.00,13,6,21,0.00
2013-2-16,19.0,5.9,-7.0,7.0,-3.7,-9.0,88,68,34,0.00,40.00,4,1,7,0.00
2013-2-17,27.0,12.8,-7.0,14.0,4.9,-11.0,85,71,57,0.00,40.00,14,7,24,0.00
2013-2-18,25.0,18.2,2.0,23.0,13.3,-4.0,94,81,68,0.00,40.00,19,8,29,0.00
2013-2-19,5.0,-1.9,-9.0,-4.0,-9.6,-15.0,78,69,55,0.00,40.00,19,13,32,0.00
2013-2-20,22.0,2.2,-12.0,-8.0,-13.9,-18.0,80,52,23,0.00,40.00,14,5,22,0.00
2013-2-21,27.0,10.5,-8.0,14.0,-0.3,-15.0,94,63,39,0.00,40.00,9,4,14,0.00
2013-2-22,27.0,21.5,16.0,25.0,20.1,14.0,96,94,89,0.00,40.00,9,4,12,0.00
2013-2-23,33.0,24.7,19.0,21.0,18.8,18.0,95,80,57,0.00,40.00,9,4,12,0.00
2013-2-24,37.0,24.9,13.0,25.0,17.9,12.0,95,76,48,0.00,40.00,6,3,10,0.00
2013-2-25,33.0,22.1,10.0,23.0,17.4,9.0,94,83,64,0.00,40.00,9,2,14,0.00
2013-2-26,44.0,26.1,5.0,25.0,15.0,3.0,95,68,34,0.00,40.00,7,3,12,0.00
2013-2-27,37.0,27.8,20.0,23.0,18.8,14.0,83,69,50,0.00,40.00,15,8,24,0.00
2013-2-28,31.0,24.4,19.0,19.0,14.5,5.0,84,66,49,0.00,40.00,11,7,22,0.00
2013-3-1,29.0,16.9,8.0,7.0,-0.6,-9.0,62,47,29,0.00,40.00,7,4,14,0.00
2013-3-2,30.0,15.2,-3.0,5.0,-4.0,-15.0,72,43,27,0.00,40.00,6,1,9,0.00
2013-3-3,33.0,20.0,8.0,10.0,4.4,0.0,91,56,25,0.00,40.00,12,5,17,0.00
2013-3-4,30.0,23.2,19.0,21.0,14.3,9.0,97,71,41,0.00,40.00,17,8,27,0.00
2013-3-5,23.0,20.8,17.0,21.0,19.1,14.0,98,93,82,0.00,40.00,11,6,16,0.01
2013-3-6,25.0,14.9,6.0,14.0,9.9,5.0,94,82,57,0.00,40.00,11,4,14,0.01
2013-3-7,35.0,18.6,0.0,18.0,9.9,-2.0,93,72,40,0.00,40.00,9,5,17,0.00
2013-3-8,33.0,24.9,16.0,25.0,20.2,16.0,97,82,63,0.00,40.00,6,3,11,0.00
2013-3-9,33.0,29.7,26.0,32.0,28.3,23.0,98,94,87,0.00,40.00,9,3,14,0.01
2013-3-10,30.0,25.4,21.0,30.0,20.0,14.0,98,80,67,0.00,40.00,16,10,23,0.01
2013-3-11,27.0,21.1,18.0,18.0,14.4,12.0,88,75,60,0.00,40.00,12,6,16,0.00
2013-3-12,21.0,17.1,11.0,16.0,8.1,0.0,91,68,45,0.00,40.00,16,8,23,0.00
2013-3-13,33.0,19.1,7.0,9.0,4.9,0.0,90,56,33,0.00,40.00,8,4,13,0.00
2013-3-14,38.0,25.3,9.0,27.0,17.7,5.0,88,73,60,0.00,40.00,9,4,14,0.00
2013-3-15,34.0,21.8,11.0,27.0,12.9,1.0,89,70,38,0.00,40.00,12,7,20,0.00
2013-3-16,17.0,8.6,1.0,9.0,1.3,-6.0,90,73,51,0.00,40.00,17,7,23,0.00
2013-3-17,24.0,8.3,-11.0,12.0,-3.5,-15.0,83,61,36,0.00,40.00,14,6,20,0.00
2013-3-18,25.0,20.2,14.0,23.0,16.5,9.0,97,85,60,0.00,40.00,20,10,30,0.01
2013-3-19,20.0,11.6,4.0,9.0,1.5,-6.0,84,65,42,0.00,40.00,21,14,32,0.01
2013-3-20,18.0,9.0,2.0,1.0,-1.5,-6.0,78,63,49,0.00,40.00,14,9,26,0.00
2013-3-21,29.0,15.7,2.0,9.0,5.1,-2.0,89,64,42,0.00,40.00,9,5,14,0.00
2013-3-22,36.0,22.2,9.0,19.0,12.1,1.0,83,65,46,0.00,40.00,7,4,12,0.00
2013-3-23,40.0,26.3,13.0,23.0,16.0,10.0,95,68,39,0.00,40.00,9,2,15,0.00
2013-3-24,30.0,27.7,23.0,25.0,19.4,14.0,83,71,60,0.00,40.00,11,4,16,0.00
2013-3-25,36.0,26.0,15.0,19.0,14.8,10.0,87,64,42,0.00,40.00,15,7,21,0.00
2013-3-26,36.0,30.1,24.0,23.0,18.2,14.0,72,61,48,0.00,40.00,8,3,12,0.00
2013-3-27,44.0,34.0,26.0,23.0,17.0,12.0,73,51,33,0.00,40.00,7,2,17,0.00
2013-3-28,46.0,32.9,17.0,19.0,15.5,10.0,80,52,29,0.00,40.00,6,2,9,0.00
2013-3-29,52.0,37.1,20.0,30.0,23.0,16.0,85,59,40,0.00,40.00,10,4,15,0.00
2013-3-30,51.0,42.2,35.0,37.0,26.4,-99.9,98,60,31,0.00,40.00,12,6,20,0.00
2013-3-31,36.0,27.7,21.0,30.0,16.3,7.0,96,64,40,0.00,40.00,19,11,31,0.00
2013-4-1,30.0,20.2,10.0,9.0,6.5,5.0,80,56,37,0.00,40.00,16,10,28,0.00
2013-4-2,33.0,23.2,14.0,12.0,6.7,-2.0,85,53,29,0.00,40.00,12,7,22,0.00
2013-4-3,42.0,28.0,9.0,28.0,10.5,-2.0,73,49,32,0.00,40.00,16,7,31,0.00
2013-4-4,39.0,34.0,26.0,32.0,21.1,10.0,94,62,35,0.00,40.00,17,8,26,0.00
2013-4-5,38.0,28.6,17.0,25.0,12.5,10.0,86,53,33,0.00,40.00,10,5,16,0.00
2013-4-6,34.0,31.0,27.0,34.0,30.1,25.0,99,96,89,0.00,40.00,12,7,21,0.01
2013-4-7,38.0,33.8,31.0,30.0,27.9,25.0,96,80,58,0.00,40.00,9,5,16,0.01
2013-4-8,38.0,34.7,32.0,34.0,31.5,27.0,98,88,73,0.00,40.00,10,4,16,0.01
2013-4-9,38.0,29.9,19.0,28.0,16.2,12.0,78,58,38,0.00,40.00,14,8,22,0.00
2013-4-10,44.0,34.0,25.0,12.0,9.9,9.0,51,38,23,0.00,40.00,12,6,19,0.00
2013-4-11,31.0,28.8,26.0,25.0,15.6,10.0,95,59,40,0.00,40.00,15,9,32,0.00
2013-4-12,32.0,26.2,22.0,25.0,22.0,18.0,97,84,56,0.00,40.00,13,7,26,0.00
2013-4-13,33.0,25.9,19.0,21.0,18.1,14.0,96,74,52,0.00,40.00,9,4,16,0.00
2013-4-14,42.0,28.9,15.0,28.0,19.8,14.0,98,73,36,0.00,40.00,17,7,30,0.01
2013-4-15,38.0,33.3,29.0,34.0,30.4,28.0,98,90,71,0.00,40.00,12,-1,24,0.01
2013-4-16,38.0,33.6,29.0,32.0,24.8,19.0,98,73,49,0.00,40.00,11,5,17,0.00
2013-4-17,36.0,32.6,30.0,28.0,27.2,25.0,95,79,71,0.00,40.00,13,4,21,0.00
2013-4-18,32.0,29.2,27.0,30.0,27.4,25.0,98,93,80,0.00,40.00,19,10,34,0.01
2013-4-19,32.0,26.6,22.0,28.0,14.1,0.0,98,64,26,0.00,40.00,23,6,39,0.00
2013-4-20,41.0,26.5,13.0,9.0,3.5,0.0,59,38,22,0.00,40.00,7,3,12,0.00
2013-4-21,36.0,29.8,21.0,34.0,23.2,9.0,98,77,47,0.00,40.00,15,7,27,0.01
2013-4-22,36.0,32.9,29.0,32.0,22.0,18.0,98,65,47,0.00,40.00,11,6,17,0.01
2013-4-23,41.0,33.5,28.0,19.0,14.7,9.0,69,47,27,0.00,40.00,12,6,21,0.00
2013-4-24,42.0,31.8,21.0,28.0,20.9,14.0,94,65,32,0.00,40.00,9,3,16,0.00
2013-4-25,44.0,35.4,28.0,28.0,22.9,16.0,98,65,32,0.00,40.00,11,6,17,0.00
2013-4-26,63.0,47.7,35.0,34.0,28.4,18.0,72,48,28,0.00,40.00,9,4,12,0.00
2013-4-27,69.0,53.8,32.0,34.0,30.9,27.0,83,46,25,0.00,40.00,13,5,20,0.00
2013-4-28,65.0,54.9,47.0,46.0,40.1,27.0,82,58,39,0.00,40.00,12,6,20,0.00
2013-4-29,68.0,52.2,37.0,37.0,28.5,25.0,70,43,20,0.00,40.00,12,5,17,0.00
2013-4-30,64.0,52.7,45.0,52.0,37.7,25.0,97,62,22,0.00,40.00,21,10,34,0.01
2013-5-1,45.0,35.1,30.0,32.0,24.3,21.0,77,64,55,0.00,40.00,13,8,22,0.00
2013-5-2,38.0,32.4,29.0,23.0,22.3,21.0,76,66,55,0.00,40.00,14,8,20,0.00
2013-5-3,43.0,33.8,25.0,32.0,24.1,21.0,95,69,44,0.00,40.00,13,7,19,0.00
2013-5-4,38.0,34.7,31.0,36.0,33.4,30.0,98,95,90,0.00,40.00,10,5,14,0.00
2013-5-5,58.0,43.8,35.0,39.0,37.4,34.0,98,80,51,0.00,40.00,7,4,12,0.00
2013-5-6,72.0,54.8,35.0,46.0,40.7,34.0,98,64,33,0.00,40.00,9,2,17,0.00
2013-5-7,76.0,61.4,43.0,46.0,41.5,36.0,96,54,24,0.00,40.00,10,4,18,0.00
2013-5-8,78.0,59.4,42.0,52.0,43.5,39.0,92,60,27,0.00,40.00,11,3,19,0.00
2013-5-9,61.0,48.3,38.0,50.0,36.7,21.0,98,70,24,0.00,40.00,13,6,20,0.00
2013-5-10,60.0,44.4,30.0,43.0,23.2,-99.9,87,50,22,0.00,40.00,17,5,29,0.00
2013-5-11,43.0,36.9,33.0,36.0,26.6,-99.9,85,68,50,0.00,40.00,23,13,35,0.00
2013-5-12,50.0,38.3,27.0,21.0,18.5,14.0,73,47,27,0.00,40.00,14,7,24,0.00
2013-5-13,60.0,44.4,28.0,37.0,27.4,16.0,72,52,32,0.00,40.00,17,7,28,0.01
2013-5-14,72.0,49.5,41.0,48.0,40.6,36.0,94,72,44,0.00,40.00,17,6,27,0.00
2013-5-15,74.0,64.2,50.0,46.0,40.9,36.0,83,46,26,0.00,40.00,17,7,26,0.00
2013-5-16,77.0,58.3,46.0,41.0,20.5,-99.9,64,40,26,0.00,40.00,10,4,16,0.00
2013-5-17,68.0,56.7,47.0,41.0,33.5,-99.9,68,48,35,0.00,40.00,14,8,22,0.00
2013-5-18,57.0,52.7,47.0,55.0,49.5,36.0,98,89,54,0.00,40.00,11,5,18,0.00
2013-5-19,66.0,57.8,52.0,63.0,55.9,52.0,97,93,77,0.00,40.00,13,5,23,0.01
2013-5-20,55.0,52.3,49.0,54.0,51.3,48.0,97,95,91,0.00,40.00,16,8,27,0.01
2013-5-21,49.0,46.4,44.0,48.0,45.5,43.0,97,96,91,0.00,40.00,12,7,21,0.01
2013-5-22,69.0,55.8,44.0,46.0,38.7,27.0,95,59,21,0.00,40.00,18,8,26,0.01
2013-5-23,63.0,51.3,39.0,36.0,27.4,21.0,65,42,21,0.00,40.00,11,5,18,0.00
2013-5-24,70.0,52.0,30.0,36.0,28.8,27.0,94,48,21,0.00,40.00,10,4,17,0.00
2013-5-25,64.0,53.8,45.0,43.0,38.6,30.0,87,57,40,0.00,40.00,12,5,21,0.00
2013-5-26,69.0,56.5,41.0,37.0,32.1,27.0,59,40,26,0.00,40.00,16,6,28,0.00
2013-5-27,66.0,56.6,44.0,45.0,36.6,27.0,57,46,38,0.00,40.00,12,6,24,0.00
2013-5-28,70.0,58.0,50.0,52.0,44.1,36.0,72,60,43,0.00,40.00,11,4,17,0.00
2013-5-29,74.0,60.7,49.0,61.0,52.9,41.0,95,76,53,0.00,40.00,11,4,17,0.00
2013-5-30,75.0,65.4,59.0,64.0,60.4,55.0,96,84,51,0.00,40.00,16,6,26,0.01
2013-5-31,75.0,65.7,58.0,63.0,54.4,45.0,96,70,34,0.00,40.00,16,6,29,0.01
2013-6-1,58.0,50.3,44.0,55.0,47.4,39.0,97,89,66,0.00,40.00,17,8,26,0.01
2013-6-2,63.0,50.1,37.0,41.0,34.1,27.0,96,59,29,0.00,40.00,11,6,19,0.01
2013-6-3,67.0,52.7,35.0,39.0,32.1,25.0,94,52,21,0.00,40.00,8,2,13,0.00
2013-6-4,63.0,54.7,48.0,41.0,35.8,30.0,72,49,38,0.00,40.00,9,4,17,0.00
2013-6-5,53.0,49.2,45.0,50.0,44.0,37.0,96,83,65,0.00,40.00,10,4,19,0.00
2013-6-6,62.0,52.8,47.0,46.0,43.7,39.0,87,71,50,0.00,40.00,7,3,15,0.00
2013-6-7,63.0,52.3,37.0,48.0,40.5,36.0,97,68,39,0.00,40.00,6,1,11,0.00
2013-6-8,70.0,54.5,40.0,46.0,42.6,39.0,96,68,35,0.00,40.00,11,3,16,0.00
2013-7-10,74.0,66.1,56.0,57.0,52.8,48.0,93,64,41,0.00,40.00,14,7,21,0.01
2013-7-11,82.0,66.8,49.0,57.0,52.7,48.0,97,65,35,0.00,40.00,12,4,16,0.01
2013-7-12,86.0,73.7,62.0,64.0,61.0,59.0,88,65,49,0.00,40.00,17,8,29,0.01
2013-7-13,81.0,71.3,65.0,70.0,66.9,61.0,96,86,61,0.00,40.00,9,-23,19,0.00
2013-7-14,69.0,66.8,65.0,68.0,65.0,61.0,97,94,81,0.00,40.00,8,4,12,0.01
2013-7-15,74.0,68.4,65.0,70.0,66.2,64.0,96,92,80,0.00,40.00,7,2,15,0.01
2013-7-16,88.0,77.2,63.0,70.0,64.9,63.0,96,69,44,0.00,40.00,12,5,21,0.00
2013-7-17,86.0,77.4,69.0,75.0,70.7,66.0,97,80,56,0.00,40.00,9,3,13,0.01
2013-7-18,89.0,79.0,69.0,73.0,69.0,66.0,97,74,50,0.00,40.00,14,6,25,0.01
2013-7-19,77.0,70.8,65.0,66.0,55.0,48.0,95,60,37,0.00,40.00,14,-11,26,0.01
2013-7-22,73.0,67.3,60.0,59.0,53.3,50.0,73,60,53,0.00,40.00,15,9,24,0.00
2013-7-23,70.0,58.6,50.0,52.0,48.4,45.0,94,71,43,0.00,40.00,10,5,16,0.00
2013-7-24,74.0,66.1,48.0,55.0,48.6,46.0,97,57,38,0.00,40.00,10,5,14,0.00
2013-7-25,74.0,63.8,54.0,61.0,57.0,52.0,96,80,46,0.00,40.00,12,3,22,0.00
2013-7-26,58.0,52.6,48.0,57.0,49.8,45.0,97,90,70,0.00,40.00,17,7,26,0.00
2013-7-27,53.0,48.7,46.0,50.0,46.0,45.0,96,90,80,0.00,40.00,16,8,29,0.01
2013-7-28,68.0,56.9,49.0,54.0,47.1,45.0,95,72,46,0.00,40.00,12,6,20,0.01
2013-7-29,75.0,62.3,46.0,55.0,49.6,46.0,97,68,40,0.00,40.00,7,2,12,0.00
2013-7-30,73.0,61.9,52.0,61.0,57.3,52.0,96,85,60,0.00,40.00,7,3,12,0.00
2013-7-31,71.0,65.5,60.0,61.0,51.6,45.0,95,64,39,0.00,40.00,15,7,27,0.00
2013-8-1,73.0,63.9,56.0,57.0,52.3,48.0,92,67,44,0.00,40.00,9,4,16,0.00
2013-8-2,71.0,60.7,51.0,57.0,50.0,45.0,97,71,38,0.00,40.00,14,5,20,0.00
2013-8-3,70.0,59.4,50.0,52.0,47.6,43.0,92,67,41,0.00,40.00,11,-8,18,0.00
2013-8-4,72.0,58.9,43.0,54.0,45.4,43.0,97,66,34,0.00,40.00,7,-14,12,0.00
2013-8-5,72.0,62.0,55.0,63.0,57.6,52.0,97,86,64,0.00,40.00,7,3,12,0.01
2013-8-6,67.0,62.5,55.0,63.0,58.6,54.0,96,87,60,0.00,40.00,8,-46,13,0.01
2013-8-7,68.0,59.5,51.0,57.0,49.1,43.0,97,71,42,0.00,40.00,11,5,19,0.00
2013-8-8,69.0,61.3,54.0,55.0,49.1,43.0,96,66,40,0.00,40.00,10,4,16,0.00
2013-8-9,64.0,59.3,51.0,54.0,49.6,46.0,91,71,55,0.00,40.00,11,6,23,0.00
2013-8-10,74.0,63.8,52.0,55.0,49.9,45.0,97,65,36,0.00,40.00,7,3,12,0.00
2013-10-27,33.0,33.0,33.0,27.0,27.0,27.0,78,78,78,0.00,40.00,6,6,11,0.00
2013-10-28,18.0,9.0,18.0,14.0,-43.0,-99.9,87,74,60,0.00,40.00,3,2,4,0.00
2013-10-29,35.0,34.5,34.0,25.0,23.0,21.0,65,62,60,0.00,40.00,6,5,10,0.00
2013-10-30,40.0,40.0,40.0,39.0,39.0,39.0,98,98,98,0.00,40.00,2,2,7,0.00
2013-11-2,-200.0,0.0,200.0,-99.9,-99.9,-99.9,0,0,100,0.00,40.00,1,1,2,0.00
2013-11-8,23.0,18.0,15.0,21.0,16.3,14.0,95,92,88,0.00,40.00,3,2,7,0.00
2013-11-9,33.0,16.5,33.0,30.0,-35.0,-99.9,90,45,90,0.00,40.00,13,12,23,0.00
2013-11-10,35.0,30.5,18.0,28.0,22.3,10.0,93,72,60,0.00,40.00,12,8,22,0.00
2013-11-11,14.0,14.0,14.0,5.0,5.0,5.0,67,67,67,0.00,40.00,8,8,14,0.00
2013-11-13,42.0,41.4,41.0,30.0,30.0,30.0,66,65,63,0.00,40.00,8,7,14,0.00
2013-11-14,35.0,35.0,35.0,32.0,32.0,32.0,85,85,85,0.00,40.00,2,2,4,0.00